Time;durP1;ratioP1;P1;durP2;ratioP2;P2;SDS_P1;SDS_P2;PMS_P1;PMS_P2;Temp;Humidity;BMP_temperature;BMP_pressure;BME280_temperature;BME280_humidity;BME280_pressure;Samples;Min_cycle;Max_cycle;Signal;HPM_P1;HPM_P2
2023/09/22 00:00:38;;;;;;;2.42;1.55;;;16.30;63.70;;;;;;5012140;28;20392;-74
2023/09/22 00:03:05;;;;;;;3.88;1.60;;;16.40;63.00;;;;;;5014153;28;20754;-74
2023/09/22 00:05:31;;;;;;;3.30;1.85;;;16.30;63.80;;;;;;5014536;28;20416;-74
2023/09/22 00:07:56;;;;;;;3.08;1.70;;;16.30;64.50;;;;;;5014526;28;20397;-73
2023/09/22 00:10:22;;;;;;;2.63;1.80;;;16.30;64.10;;;;;;5014434;28;20389;-73
2023/09/22 00:12:48;;;;;;;5.93;2.03;;;16.30;63.80;;;;;;5014111;28;20483;-74
2023/09/22 00:15:14;;;;;;;2.88;2.10;;;16.20;63.80;;;;;;5013402;28;20831;-73
2023/09/22 00:17:39;;;;;;;2.83;1.92;;;16.20;64.40;;;;;;5014645;28;20389;-74
2023/09/22 00:20:12;;;;;;;4.70;2.08;;;16.20;62.70;;;;;;5013283;28;20400;-74
2023/09/22 00:22:38;;;;;;;5.00;2.30;;;16.20;64.50;;;;;;5015327;28;20380;-73
2023/09/22 00:25:04;;;;;;;6.13;2.20;;;16.20;65.70;;;;;;5015417;28;20397;-73
2023/09/22 00:27:30;;;;;;;3.15;2.00;;;16.10;63.80;;;;;;5017089;28;20407;-74
2023/09/22 00:29:55;;;;;;;2.40;2.20;;;16.10;63.90;;;;;;5018741;28;20501;-73
2023/09/22 00:32:21;;;;;;;5.45;2.17;;;16.10;63.40;;;;;;5015774;28;20909;-74
2023/09/22 00:34:46;;;;;;;6.47;2.50;;;16.10;62.40;;;;;;5013393;28;20396;-73
2023/09/22 00:37:12;;;;;;;2.43;2.23;;;16.10;59.60;;;;;;5012142;28;20854;-73
2023/09/22 00:39:38;;;;;;;5.03;2.80;;;16.10;56.40;;;;;;5010147;28;20558;-73
2023/09/22 00:42:08;;;;;;;2.75;2.33;;;16.10;57.30;;;;;;5011830;28;20393;-72
2023/09/22 00:44:33;;;;;;;4.50;2.10;;;16.10;56.00;;;;;;5011958;28;20434;-73
2023/09/22 00:47:00;;;;;;;2.30;2.05;;;16.10;56.80;;;;;;5011762;28;20471;-75
2023/09/22 00:49:27;;;;;;;4.18;1.90;;;16.10;56.10;;;;;;5012931;28;20401;-73
2023/09/22 00:51:53;;;;;;;3.63;2.03;;;16.10;56.70;;;;;;5012779;28;20381;-73
2023/09/22 00:54:19;;;;;;;3.80;2.00;;;16.10;54.70;;;;;;5014018;28;20416;-74
2023/09/22 00:56:46;;;;;;;3.17;1.80;;;16.10;55.30;;;;;;5011934;28;20416;-73
2023/09/22 00:59:13;;;;;;;2.85;1.90;;;16.10;56.00;;;;;;5013460;28;20412;-73
2023/09/22 01:01:41;;;;;;;3.50;1.80;;;16.00;56.10;;;;;;5011223;28;20404;-73
2023/09/22 01:04:06;;;;;;;2.60;1.60;;;15.90;56.80;;;;;;5011397;28;20891;-73
2023/09/22 01:06:32;;;;;;;4.60;1.73;;;15.80;57.50;;;;;;5011633;28;20392;-73
2023/09/22 01:09:00;;;;;;;3.20;1.80;;;15.80;59.30;;;;;;5011562;28;20974;-73
2023/09/22 01:11:25;;;;;;;3.53;1.60;;;15.70;58.50;;;;;;5026156;28;20404;-73
2023/09/22 01:13:51;;;;;;;2.67;1.70;;;15.80;57.90;;;;;;5011834;28;20408;-73
2023/09/22 01:16:16;;;;;;;3.00;1.60;;;15.80;58.90;;;;;;5011256;28;20399;-72
2023/09/22 01:18:43;;;;;;;3.50;1.50;;;15.80;58.50;;;;;;5011487;28;20384;-73
2023/09/22 01:21:08;;;;;;;3.00;2.00;;;15.80;59.30;;;;;;5011128;28;20480;-74
2023/09/22 01:23:34;;;;;;;2.40;1.80;;;15.80;59.60;;;;;;5011384;28;20970;-74
2023/09/22 01:26:00;;;;;;;7.00;1.83;;;15.90;57.30;;;;;;5011573;28;20407;-73
2023/09/22 01:28:25;;;;;;;11.13;2.33;;;15.70;58.70;;;;;;5011375;28;20400;-73
2023/09/22 01:30:51;;;;;;;4.30;2.22;;;15.60;59.10;;;;;;5012450;28;20404;-73
2023/09/22 01:33:16;;;;;;;3.58;2.33;;;15.60;58.70;;;;;;5013734;28;20420;-73
2023/09/22 01:35:42;;;;;;;5.13;2.30;;;15.50;61.40;;;;;;5013330;28;20404;-72
2023/09/22 01:38:24;;;;;;;3.70;2.00;;;15.40;63.20;;;;;;5013114;28;20389;-73
2023/09/22 01:40:50;;;;;;;4.75;2.50;;;15.40;63.00;;;;;;5011544;28;20858;-72
2023/09/22 01:43:17;;;;;;;5.20;2.47;;;15.20;62.40;;;;;;5010961;28;20420;-73
2023/09/22 01:45:43;;;;;;;4.57;2.30;;;15.10;64.60;;;;;;5011074;28;20397;-73
2023/09/22 01:48:09;;;;;;;7.38;2.78;;;15.60;67.20;;;;;;5011091;28;20472;-74
2023/09/22 01:50:37;;;;;;;7.22;2.80;;;14.80;68.40;;;;;;5013644;28;20408;-74
2023/09/22 01:53:04;;;;;;;5.90;2.50;;;14.70;69.70;;;;;;5014857;28;20545;-74
2023/09/22 01:55:32;;;;;;;6.45;2.80;;;14.70;71.00;;;;;;5015055;28;20380;-74
2023/09/22 01:57:58;;;;;;;6.40;2.72;;;14.50;73.00;;;;;;5014827;28;20444;-74
2023/09/22 02:00:24;;;;;;;8.10;2.83;;;14.50;74.30;;;;;;5014780;28;20765;-74
2023/09/22 02:02:50;;;;;;;6.38;2.70;;;14.60;74.00;;;;;;5014913;28;20392;-73
2023/09/22 02:05:16;;;;;;;3.90;2.97;;;14.70;71.50;;;;;;5015682;28;20411;-73
2023/09/22 02:07:42;;;;;;;6.17;2.63;;;14.80;69.60;;;;;;5014924;28;20392;-73
2023/09/22 02:10:09;;;;;;;5.18;2.58;;;14.90;69.80;;;;;;5014932;28;20947;-73
2023/09/22 02:12:36;;;;;;;8.00;2.90;;;14.80;71.00;;;;;;5014506;28;20413;-74
2023/09/22 02:15:02;;;;;;;3.15;2.70;;;14.80;72.10;;;;;;5029551;28;20396;-73
2023/09/22 02:17:28;;;;;;;4.65;3.00;;;14.80;73.00;;;;;;5015118;28;20478;-73
2023/09/22 02:19:55;;;;;;;5.50;2.70;;;14.90;74.00;;;;;;5014338;28;20443;-73
2023/09/22 02:22:20;;;;;;;7.20;2.70;;;14.90;74.00;;;;;;5014077;28;20797;-73
2023/09/22 02:24:46;;;;;;;5.85;2.80;;;14.80;74.20;;;;;;5014287;28;20495;-73
2023/09/22 02:27:12;;;;;;;7.40;3.00;;;14.70;76.40;;;;;;5014110;28;20377;-73
2023/09/22 02:29:37;;;;;;;7.60;3.20;;;14.60;77.40;;;;;;5014021;28;20388;-73
2023/09/22 02:32:03;;;;;;;7.20;3.70;;;14.40;80.70;;;;;;5013878;28;20471;-73
2023/09/22 02:34:28;;;;;;;5.68;2.72;;;14.30;80.90;;;;;;5013863;28;20408;-73
2023/09/22 02:36:55;;;;;;;4.78;2.90;;;14.20;82.80;;;;;;5013939;28;20388;-74
2023/09/22 02:39:21;;;;;;;4.90;3.07;;;14.10;83.40;;;;;;5013970;28;20385;-73
2023/09/22 02:41:47;;;;;;;5.85;3.05;;;14.10;83.90;;;;;;5014144;28;20423;-73
2023/09/22 02:44:13;;;;;;;5.90;3.00;;;13.90;85.30;;;;;;5013725;28;20385;-73
2023/09/22 02:46:39;;;;;;;5.60;3.80;;;13.80;87.90;;;;;;5013608;28;20399;-73
2023/09/22 02:49:05;;;;;;;6.83;3.90;;;13.70;88.40;;;;;;5029078;28;20392;-73
2023/09/22 02:51:30;;;;;;;7.82;3.08;;;13.60;91.00;;;;;;5013350;28;20389;-73
2023/09/22 02:53:56;;;;;;;6.40;3.20;;;13.80;92.10;;;;;;5012432;28;20412;-74
2023/09/22 02:56:22;;;;;;;5.10;2.90;;;13.50;93.80;;;;;;5013571;28;20870;-73
2023/09/22 02:58:48;;;;;;;5.85;3.33;;;13.40;96.70;;;;;;5013596;28;20796;-74
2023/09/22 03:01:14;;;;;;;5.88;3.40;;;13.30;97.20;;;;;;5027962;28;20492;-73
2023/09/22 03:03:43;;;;;;;5.88;3.08;;;13.20;99.20;;;;;;5013521;28;20588;-72
2023/09/22 03:06:12;;;;;;;3.80;2.90;;;13.20;99.90;;;;;;5013517;28;20518;-73
2023/09/22 03:08:39;;;;;;;4.50;3.38;;;13.20;99.90;;;;;;5013986;28;20715;-73
2023/09/22 03:11:05;;;;;;;6.00;3.90;;;13.10;99.90;;;;;;5013443;28;20796;-73
2023/09/22 03:13:31;;;;;;;5.00;3.33;;;13.10;99.90;;;;;;5056723;22;20429;-71
2023/09/22 03:15:57;;;;;;;7.90;3.40;;;13.10;99.90;;;;;;5056350;28;20378;-70
2023/09/22 03:18:23;;;;;;;7.15;3.72;;;13.20;99.90;;;;;;5070109;28;20805;-71
2023/09/22 03:20:49;;;;;;;9.10;3.72;;;13.30;99.90;;;;;;5054058;28;20386;-72
2023/09/22 03:23:15;;;;;;;7.32;3.20;;;13.30;99.90;;;;;;5056522;28;20396;-71
2023/09/22 03:25:41;;;;;;;4.20;3.60;;;13.40;99.90;;;;;;5063189;28;20416;-72
2023/09/22 03:28:06;;;;;;;4.27;2.90;;;13.60;99.90;;;;;;5069756;28;20386;-71
2023/09/22 03:30:32;;;;;;;7.80;3.27;;;13.70;99.30;;;;;;5068772;28;20439;-71
2023/09/22 03:32:58;;;;;;;6.27;3.70;;;13.80;98.30;;;;;;5062353;28;20443;-70
2023/09/22 03:35:25;;;;;;;5.80;2.95;;;13.80;95.10;;;;;;5059572;28;20390;-72
2023/09/22 03:37:52;;;;;;;6.18;2.60;;;13.90;93.60;;;;;;5061707;28;20388;-71
2023/09/22 03:40:30;;;;;;;3.95;2.95;;;14.00;90.60;;;;;;5060683;28;20780;-71
2023/09/22 03:42:56;;;;;;;5.45;2.53;;;14.00;90.70;;;;;;5056265;28;20385;-70
2023/09/22 03:45:22;;;;;;;8.50;2.60;;;14.10;85.80;;;;;;5052819;28;20789;-72
2023/09/22 03:47:47;;;;;;;4.82;2.70;;;14.10;84.20;;;;;;5052279;28;20386;-70
2023/09/22 03:50:13;;;;;;;4.18;2.80;;;14.20;82.70;;;;;;5053613;28;20389;-71
2023/09/22 03:52:42;;;;;;;4.40;2.60;;;14.20;80.70;;;;;;5053844;28;20394;-72
2023/09/22 03:55:09;;;;;;;3.30;2.73;;;14.20;81.80;;;;;;5052865;28;20394;-71
2023/09/22 03:57:34;;;;;;;5.50;2.65;;;14.20;81.60;;;;;;5053853;28;20405;-72
2023/09/22 04:00:00;;;;;;;6.03;2.80;;;14.20;80.00;;;;;;5053116;28;20412;-70
2023/09/22 04:02:27;;;;;;;5.90;2.60;;;14.20;80.70;;;;;;5053503;28;20385;-71
2023/09/22 04:04:54;;;;;;;5.23;2.40;;;14.20;79.00;;;;;;5053394;28;20386;-71
2023/09/22 04:07:19;;;;;;;4.87;2.30;;;14.20;76.70;;;;;;5053864;28;20435;-71
2023/09/22 04:09:45;;;;;;;7.70;3.20;;;14.20;75.40;;;;;;5052817;28;20385;-72
2023/09/22 04:12:11;;;;;;;3.73;2.30;;;14.20;75.20;;;;;;5052456;28;20381;-70
2023/09/22 04:14:37;;;;;;;9.85;2.80;;;14.20;74.10;;;;;;5052102;28;20373;-72
2023/09/22 04:17:03;;;;;;;7.57;2.70;;;14.30;73.90;;;;;;5053171;28;20805;-72
2023/09/22 04:19:33;;;;;;;3.50;2.47;;;14.30;73.60;;;;;;5053022;28;20377;-69
2023/09/22 04:22:00;;;;;;;4.38;2.53;;;14.30;73.80;;;;;;5053188;28;20377;-71
2023/09/22 04:24:31;;;;;;;7.95;2.72;;;14.30;73.40;;;;;;5053085;28;20382;-72
2023/09/22 04:27:00;;;;;;;14.02;3.33;;;14.30;71.40;;;;;;5052340;28;20830;-71
2023/09/22 04:29:26;;;;;;;9.00;3.00;;;14.40;72.30;;;;;;5052522;28;20389;-70
2023/09/22 04:31:52;;;;;;;6.05;2.80;;;14.30;71.80;;;;;;5051367;28;20396;-71
2023/09/22 04:34:19;;;;;;;8.32;3.00;;;14.20;72.80;;;;;;5052265;28;20409;-71
2023/09/22 04:36:45;;;;;;;8.50;2.92;;;14.30;70.30;;;;;;5052673;28;20409;-71
2023/09/22 04:39:10;;;;;;;4.63;2.63;;;14.30;71.60;;;;;;5052760;28;20467;-70
2023/09/22 04:41:36;;;;;;;9.40;2.70;;;14.20;72.20;;;;;;5053508;28;20385;-72
2023/09/22 04:44:02;;;;;;;6.90;2.80;;;14.20;71.70;;;;;;5052503;28;20393;-72
2023/09/22 04:46:27;;;;;;;3.87;2.50;;;14.30;72.00;;;;;;5053055;28;20398;-71
2023/09/22 04:48:55;;;;;;;7.30;2.70;;;14.30;70.70;;;;;;5053312;28;20414;-71
2023/09/22 04:51:21;;;;;;;5.90;2.70;;;14.20;72.00;;;;;;5053034;28;20465;-70
2023/09/22 04:53:47;;;;;;;4.00;2.70;;;14.20;72.90;;;;;;5053492;28;20496;-70
2023/09/22 04:56:12;;;;;;;5.53;2.73;;;14.20;73.30;;;;;;5054379;28;20385;-71
2023/09/22 04:58:38;;;;;;;6.30;3.30;;;14.40;71.90;;;;;;5053339;28;20423;-70
2023/09/22 05:01:03;;;;;;;6.72;2.78;;;14.40;70.30;;;;;;5052693;28;20741;-70
2023/09/22 05:03:29;;;;;;;6.40;2.80;;;14.30;70.70;;;;;;5052917;28;20389;-71
2023/09/22 05:06:01;;;;;;;8.73;2.53;;;14.20;70.30;;;;;;5052539;28;20408;-71
2023/09/22 05:08:27;;;;;;;6.47;2.60;;;14.20;71.40;;;;;;5053506;28;20412;-72
2023/09/22 05:10:52;;;;;;;6.78;2.97;;;14.20;71.50;;;;;;5051070;28;20801;-69
2023/09/22 05:13:18;;;;;;;6.97;2.90;;;14.10;72.40;;;;;;5051942;28;20417;-71
2023/09/22 05:15:45;;;;;;;9.40;2.90;;;14.10;72.30;;;;;;5053569;28;20901;-71
2023/09/22 05:18:14;;;;;;;4.00;2.88;;;14.10;72.60;;;;;;5052464;28;20381;-71
2023/09/22 05:20:45;;;;;;;9.85;2.90;;;14.10;73.40;;;;;;5051757;28;20378;-71
2023/09/22 05:23:11;;;;;;;4.45;2.70;;;14.00;74.20;;;;;;5051749;28;20855;-70
2023/09/22 05:25:43;;;;;;;6.70;3.10;;;13.90;76.10;;;;;;5052175;28;20408;-73
2023/09/22 05:28:09;;;;;;;6.10;3.03;;;14.00;76.70;;;;;;5068084;28;20389;-72
2023/09/22 05:30:38;;;;;;;7.50;3.23;;;14.00;75.70;;;;;;5051759;28;20463;-70
2023/09/22 05:33:07;;;;;;;4.97;3.15;;;14.00;75.50;;;;;;5051841;28;20405;-71
2023/09/22 05:35:35;;;;;;;7.15;2.80;;;14.00;74.70;;;;;;5053337;28;20381;-71
2023/09/22 05:38:01;;;;;;;6.75;2.72;;;13.90;76.40;;;;;;5051617;28;20378;-70
2023/09/22 05:40:27;;;;;;;7.47;3.22;;;13.90;76.70;;;;;;5052448;28;20386;-71
2023/09/22 05:42:53;;;;;;;9.93;3.30;;;13.80;76.30;;;;;;5070662;28;20385;-70
2023/09/22 05:45:18;;;;;;;7.03;3.30;;;13.80;76.90;;;;;;5052602;28;20405;-72
2023/09/22 05:47:44;;;;;;;12.35;3.65;;;13.60;78.90;;;;;;5051772;28;20404;-70
2023/09/22 05:50:11;;;;;;;8.20;3.10;;;13.50;80.50;;;;;;5050397;28;20527;-70
2023/09/22 05:52:37;;;;;;;8.10;3.30;;;13.50;81.20;;;;;;5051313;28;20413;-71
2023/09/22 05:55:04;;;;;;;7.20;4.03;;;13.40;84.10;;;;;;5051140;28;20464;-69
2023/09/22 05:57:30;;;;;;;9.35;3.88;;;13.40;86.10;;;;;;5043393;28;20391;-71
2023/09/22 05:59:57;;;;;;;9.47;4.10;;;13.30;86.40;;;;;;5032473;28;20379;-71
2023/09/22 06:02:23;;;;;;;9.98;4.05;;;13.40;87.20;;;;;;5044242;28;20480;-72
2023/09/22 06:04:49;;;;;;;6.40;4.45;;;;;;;;;;5051141;28;20488;-72
2023/09/22 06:07:15;;;;;;;9.60;4.30;;;13.30;89.70;;;;;;5044331;28;20387;-71
2023/09/22 06:09:40;;;;;;;12.63;4.80;;;13.30;87.30;;;;;;5053391;28;20401;-72
2023/09/22 06:12:07;;;;;;;10.47;5.70;;;13.40;88.60;;;;;;5057534;28;20484;-73
2023/09/22 06:14:32;;;;;;;9.40;4.88;;;13.40;89.60;;;;;;5051543;28;20409;-71
2023/09/22 06:16:58;;;;;;;13.23;4.32;;;13.30;91.00;;;;;;5050815;28;20390;-72
2023/09/22 06:19:23;;;;;;;9.47;4.97;;;13.10;91.10;;;;;;5045973;28;20453;-70
2023/09/22 06:21:49;;;;;;;8.00;4.30;;;13.30;92.20;;;;;;5040014;28;20918;-70
2023/09/22 06:24:15;;;;;;;7.00;4.20;;;13.30;90.50;;;;;;5030797;28;20395;-72
2023/09/22 06:26:41;;;;;;;9.63;4.57;;;13.40;90.10;;;;;;5044889;28;20439;-71
2023/09/22 06:29:07;;;;;;;10.82;4.80;;;13.30;91.50;;;;;;5052095;28;20870;-71
2023/09/22 06:31:33;;;;;;;7.67;4.57;;;13.30;91.30;;;;;;5053290;28;20463;-72
2023/09/22 06:33:59;;;;;;;14.27;5.00;;;13.30;92.10;;;;;;5049156;28;20880;-70
2023/09/22 06:36:24;;;;;;;18.25;6.15;;;13.30;92.70;;;;;;5050737;28;20470;-71
2023/09/22 06:38:50;;;;;;;8.17;4.30;;;13.30;93.00;;;;;;5054509;28;20393;-71
2023/09/22 06:41:19;;;;;;;7.87;4.17;;;13.40;92.00;;;;;;5053494;28;20389;-70
2023/09/22 06:43:46;;;;;;;8.40;4.10;;;13.40;90.90;;;;;;5054874;28;20714;-71
2023/09/22 06:46:14;;;;;;;7.80;4.75;;;13.50;91.40;;;;;;5053598;28;20397;-71
2023/09/22 06:48:39;;;;;;;7.70;4.20;;;13.60;91.00;;;;;;5057153;28;20478;-72
2023/09/22 06:51:06;;;;;;;11.00;4.37;;;13.70;89.80;;;;;;5056244;28;20766;-71
2023/09/22 06:53:34;;;;;;;9.23;3.97;;;13.80;87.60;;;;;;5058180;28;20527;-71
2023/09/22 06:56:08;;;;;;;6.15;3.63;;;13.90;85.70;;;;;;5046911;28;20478;-72
2023/09/22 06:58:40;;;;;;;7.33;3.40;;;13.90;86.30;;;;;;5042913;28;20457;-73
2023/09/22 07:01:16;;;;;;;7.35;3.15;;;14.10;81.80;;;;;;5031376;28;20387;-70
2023/09/22 07:03:44;;;;;;;8.85;3.22;;;14.20;77.20;;;;;;5034313;28;20453;-70
2023/09/22 07:06:14;;;;;;;12.97;3.53;;;14.30;77.00;;;;;;5030794;28;20736;-70
2023/09/22 07:08:41;;;;;;;7.17;3.37;;;14.50;72.50;;;;;;5037240;28;20424;-70
2023/09/22 07:11:08;;;;;;;6.38;3.28;;;14.60;70.90;;;;;;5049348;28;20417;-72
2023/09/22 07:13:35;;;;;;;8.07;3.30;;;14.70;70.20;;;;;;5050791;28;20504;-71
2023/09/22 07:16:00;;;;;;;9.75;3.58;;;14.80;66.30;;;;;;5050729;28;20393;-71
2023/09/22 07:18:26;;;;;;;6.63;3.50;;;15.00;68.90;;;;;;5048219;28;20385;-71
2023/09/22 07:20:53;;;;;;;8.75;3.80;;;15.00;68.90;;;;;;5049254;28;20390;-73
2023/09/22 07:23:20;;;;;;;9.25;4.15;;;15.20;67.80;;;;;;5049847;28;20484;-70
2023/09/22 07:26:08;;;;;;;8.67;3.90;;;15.10;67.90;;;;;;5049913;28;20512;-73
2023/09/22 07:28:34;;;;;;;10.05;4.00;;;15.10;68.50;;;;;;5050470;28;20477;-71
2023/09/22 07:31:10;;;;;;;7.80;3.70;;;15.10;67.20;;;;;;5049177;28;20928;-72
2023/09/22 07:33:36;;;;;;;6.68;3.50;;;15.20;66.10;;;;;;5049793;28;20418;-70
2023/09/22 07:36:02;;;;;;;12.07;4.05;;;15.20;65.10;;;;;;5048500;28;20487;-70
2023/09/22 07:38:29;;;;;;;7.43;3.50;;;15.30;65.20;;;;;;5047003;28;20386;-69
2023/09/22 07:40:54;;;;;;;6.72;3.38;;;15.30;63.90;;;;;;5050743;28;20424;-71
2023/09/22 07:43:20;;;;;;;5.30;2.97;;;15.30;61.70;;;;;;5032185;28;20757;-73
2023/09/22 07:45:47;;;;;;;9.02;2.80;;;15.40;58.40;;;;;;5032879;28;20387;-71
2023/09/22 07:48:13;;;;;;;9.90;3.00;;;15.60;56.80;;;;;;5032728;28;20391;-71
2023/09/22 07:50:39;;;;;;;6.60;2.10;;;15.70;54.50;;;;;;5033146;28;20482;-70
2023/09/22 07:53:05;;;;;;;6.40;2.20;;;15.80;51.40;;;;;;5033540;28;20914;-70
2023/09/22 07:55:31;;;;;;;13.33;5.10;;;15.80;50.40;;;;;;5052748;28;20381;-72
2023/09/22 07:57:57;;;;;;;5.37;2.20;;;15.90;50.70;;;;;;5053116;28;20457;-72
2023/09/22 08:00:26;;;;;;;7.57;2.10;;;16.00;49.80;;;;;;5052253;28;20724;-70
2023/09/22 08:02:52;;;;;;;5.30;2.03;;;16.10;48.30;;;;;;5052908;28;20408;-70
2023/09/22 08:05:18;;;;;;;2.83;1.80;;;16.20;47.50;;;;;;5052334;28;20393;-70
2023/09/22 08:07:44;;;;;;;3.85;2.17;;;16.30;46.40;;;;;;5052063;28;20800;-70
2023/09/22 08:10:11;;;;;;;7.97;2.38;;;16.40;47.10;;;;;;5052411;28;20396;-69
2023/09/22 08:12:43;;;;;;;3.85;2.00;;;16.30;47.20;;;;;;5051150;28;20397;-72
2023/09/22 08:15:09;;;;;;;9.48;2.13;;;16.60;45.50;;;;;;5051963;28;20808;-71
2023/09/22 08:17:35;;;;;;;3.80;1.95;;;16.70;44.60;;;;;;5051753;28;20388;-71
2023/09/22 08:20:02;;;;;;;3.45;1.65;;;16.80;43.70;;;;;;5051716;28;20844;-71
2023/09/22 08:22:28;;;;;;;5.10;2.00;;;17.00;42.80;;;;;;5049566;28;20429;-74
2023/09/22 08:24:54;;;;;;;7.07;2.43;;;17.30;41.20;;;;;;5051414;28;20425;-74
2023/09/22 08:27:19;;;;;;;6.75;1.70;;;17.40;39.70;;;;;;5051460;28;20382;-75
2023/09/22 08:29:50;;;;;;;7.07;2.23;;;17.60;39.10;;;;;;5051328;28;20386;-77
2023/09/22 08:32:16;;;;;;;2.95;1.80;;;18.00;38.40;;;;;;5049538;28;20546;-74
2023/09/22 08:34:41;;;;;;;6.20;2.00;;;18.40;36.50;;;;;;5051336;28;20405;-70
2023/09/22 08:37:07;;;;;;;4.80;1.80;;;18.90;35.70;;;;;;5051095;28;20392;-72
2023/09/22 08:39:33;;;;;;;3.10;1.80;;;19.00;33.40;;;;;;5049931;28;20481;-69
2023/09/22 08:41:59;;;;;;;4.20;1.50;;;19.00;33.60;;;;;;5050943;28;20393;-70
2023/09/22 08:44:26;;;;;;;5.50;1.40;;;18.90;31.70;;;;;;5051447;28;20385;-69
2023/09/22 08:46:52;;;;;;;5.30;1.30;;;18.50;31.10;;;;;;5051678;28;20383;-69
2023/09/22 08:49:21;;;;;;;4.70;1.30;;;18.40;31.60;;;;;;5043878;28;20393;-71
2023/09/22 08:51:48;;;;;;;7.03;1.30;;;18.20;32.10;;;;;;5031451;28;20380;-69
2023/09/22 08:54:14;;;;;;;7.75;1.60;;;18.10;33.20;;;;;;5040470;28;20455;-71
2023/09/22 08:56:40;;;;;;;4.47;1.60;;;18.00;33.50;;;;;;5052096;28;20381;-70
2023/09/22 08:59:08;;;;;;;4.03;1.40;;;18.10;33.60;;;;;;5051259;28;20746;-69
2023/09/22 09:01:34;;;;;;;5.45;1.17;;;18.20;32.90;;;;;;5050934;28;20381;-71
2023/09/22 09:04:33;;;;;;;4.50;1.30;;;18.20;32.20;;;;;;5030883;28;20433;-72
2023/09/22 09:06:59;;;;;;;4.80;1.30;;;18.00;32.20;;;;;;5031747;28;20398;-70
2023/09/22 09:09:24;;;;;;;3.80;1.30;;;17.90;33.20;;;;;;5043689;28;20394;-70
2023/09/22 09:12:01;;;;;;;3.95;1.27;;;17.90;33.30;;;;;;5045059;28;20395;-71
2023/09/22 09:14:31;;;;;;;5.60;1.20;;;17.80;33.10;;;;;;5094656;22;20451;-74
2023/09/22 09:16:57;;;;;;;1.90;1.27;;;17.90;32.60;;;;;;5087304;28;20418;-75
2023/09/22 09:19:24;;;;;;;3.90;1.42;;;17.90;33.10;;;;;;5084247;28;20415;-75
2023/09/22 09:22:05;;;;;;;4.85;1.67;;;17.90;32.40;;;;;;5072495;28;20378;-74
2023/09/22 09:24:32;;;;;;;8.30;1.23;;;18.00;31.90;;;;;;5058298;28;20401;-74
2023/09/22 09:26:58;;;;;;;4.68;1.30;;;18.10;28.50;;;;;;5063692;28;20401;-74
2023/09/22 09:29:30;;;;;;;6.60;1.25;;;18.00;27.70;;;;;;5038767;28;20401;-74
2023/09/22 09:32:00;;;;;;;3.85;1.60;;;17.80;28.10;;;;;;5041525;28;20482;-74
2023/09/22 09:34:41;;;;;;;5.88;1.45;;;17.60;28.10;;;;;;5047838;28;20458;-74
2023/09/22 09:37:14;;;;;;;3.35;1.45;;;17.90;28.30;;;;;;5040608;28;20387;-74
2023/09/22 09:39:45;;;;;;;4.53;1.60;;;18.00;28.80;;;;;;5038597;28;20827;-74
2023/09/22 09:42:15;;;;;;;3.35;1.10;;;18.20;28.10;;;;;;5042367;28;20445;-74
2023/09/22 09:44:50;;;;;;;2.00;1.20;;;18.50;26.20;;;;;;5047298;28;20513;-75
2023/09/22 09:47:32;;;;;;;3.78;1.20;;;18.50;26.30;;;;;;5041731;28;20771;-75
2023/09/22 09:49:58;;;;;;;2.28;1.00;;;18.60;26.10;;;;;;5049480;28;20401;-75
2023/09/22 09:52:52;;;;;;;4.68;1.60;;;18.70;30.10;;;;;;5052989;28;20432;-75
2023/09/22 09:55:20;;;;;;;4.90;1.45;;;18.90;25.80;;;;;;5054980;28;20400;-73
2023/09/22 09:57:46;;;;;;;3.13;1.30;;;19.00;25.40;;;;;;5050815;28;20393;-73
2023/09/22 10:00:19;;;;;;;7.28;1.50;;;19.10;26.30;;;;;;5051130;28;20408;-75
2023/09/22 10:02:46;;;;;;;3.85;1.70;;;19.20;24.90;;;;;;5051387;28;20425;-75
2023/09/22 10:05:20;;;;;;;5.47;1.53;;;19.10;25.30;;;;;;5050358;28;20397;-75
2023/09/22 10:07:48;;;;;;;3.78;1.83;;;18.90;25.30;;;;;;5041149;28;20433;-74
2023/09/22 10:10:16;;;;;;;4.07;1.42;;;18.60;26.60;;;;;;5028042;28;20425;-73
2023/09/22 10:12:43;;;;;;;3.92;1.50;;;18.60;27.60;;;;;;5035823;28;20405;-73
2023/09/22 10:15:10;;;;;;;6.05;1.60;;;18.80;27.80;;;;;;5042812;28;20464;-73
2023/09/22 10:17:36;;;;;;;3.88;1.70;;;18.90;27.70;;;;;;5031353;28;20387;-74
2023/09/22 10:20:07;;;;;;;3.00;1.60;;;19.10;27.10;;;;;;5030985;28;20752;-75
2023/09/22 10:22:35;;;;;;;5.82;1.40;;;19.20;25.80;;;;;;5036200;28;20402;-73
2023/09/22 10:25:13;;;;;;;2.77;1.40;;;19.20;25.70;;;;;;5043937;28;20787;-73
2023/09/22 10:27:55;;;;;;;3.05;1.38;;;19.30;26.00;;;;;;5031851;28;20394;-73
2023/09/22 10:30:23;;;;;;;3.45;1.42;;;19.60;26.10;;;;;;5032345;28;20469;-76
2023/09/22 10:32:48;;;;;;;4.45;1.30;;;20.00;25.70;;;;;;5033490;28;20406;-74
2023/09/22 10:35:38;;;;;;;5.30;1.50;;;20.30;23.20;;;;;;5036759;28;20890;-74
2023/09/22 10:38:05;;;;;;;3.28;1.30;;;20.30;22.80;;;;;;5052980;28;20431;-73
2023/09/22 10:40:31;;;;;;;3.30;1.60;;;20.20;22.60;;;;;;5051974;28;20393;-73
2023/09/22 10:43:02;;;;;;;3.87;1.60;;;20.00;22.90;;;;;;5043309;28;20421;-74
2023/09/22 10:45:29;;;;;;;3.40;1.30;;;19.90;22.80;;;;;;5045534;28;20383;-75
2023/09/22 10:47:59;;;;;;;3.40;1.80;;;19.90;22.00;;;;;;5034383;28;20886;-74
2023/09/22 10:50:32;;;;;;;4.00;1.30;;;19.90;21.60;;;;;;5033829;28;20383;-74
2023/09/22 10:53:03;;;;;;;4.57;1.40;;;20.10;19.90;;;;;;5033571;28;20399;-75
2023/09/22 10:55:36;;;;;;;3.75;1.27;;;20.40;20.20;;;;;;5033952;28;20430;-74
2023/09/22 10:58:10;;;;;;;4.60;1.73;;;20.50;20.30;;;;;;5051775;28;20917;-75
2023/09/22 11:00:42;;;;;;;2.40;1.20;;;20.40;20.10;;;;;;5053029;28;20408;-75
2023/09/22 11:03:12;;;;;;;4.30;1.40;;;20.10;20.40;;;;;;5054810;28;20398;-75
2023/09/22 11:05:39;;;;;;;2.20;1.30;;;19.70;21.40;;;;;;5053100;28;20403;-75
2023/09/22 11:08:15;;;;;;;5.90;1.60;;;19.60;22.10;;;;;;5053076;28;20411;-75
2023/09/22 11:10:43;;;;;;;3.03;1.63;;;19.90;21.20;;;;;;5052978;28;20792;-75
2023/09/22 11:13:09;;;;;;;4.13;1.70;;;20.20;20.30;;;;;;5052653;28;20409;-75
2023/09/22 11:15:44;;;;;;;4.87;1.60;;;20.50;19.90;;;;;;5054073;28;20388;-75
2023/09/22 11:18:22;;;;;;;2.00;1.38;;;20.90;19.60;;;;;;5051540;28;20398;-76
2023/09/22 11:20:48;;;;;;;4.65;1.40;;;21.10;18.20;;;;;;5052580;28;20385;-74
2023/09/22 11:23:15;;;;;;;2.60;1.70;;;21.20;17.50;;;;;;5052516;28;20393;-74
2023/09/22 11:25:40;;;;;;;4.57;1.50;;;21.20;18.10;;;;;;5052533;28;20431;-74
2023/09/22 11:28:06;;;;;;;2.00;1.30;;;21.00;18.40;;;;;;5053431;28;20389;-73
2023/09/22 11:30:33;;;;;;;4.90;1.40;;;21.00;18.20;;;;;;5052428;28;20869;-76
2023/09/22 11:32:59;;;;;;;3.83;1.30;;;20.80;18.80;;;;;;5052320;28;20397;-76
2023/09/22 11:35:39;;;;;;;4.53;1.40;;;20.60;19.60;;;;;;5053291;28;20378;-75
2023/09/22 11:38:27;;;;;;;4.40;1.50;;;20.40;19.80;;;;;;5052760;28;20923;-74
2023/09/22 11:41:10;;;;;;;2.85;1.10;;;20.40;20.20;;;;;;5052828;28;20427;-74
2023/09/22 11:43:41;;;;;;;4.70;1.43;;;20.80;19.20;;;;;;5054091;28;20387;-75
2023/09/22 11:46:12;;;;;;;2.70;1.30;;;20.80;17.10;;;;;;5052556;28;20381;-75
2023/09/22 11:48:59;;;;;;;3.80;1.50;;;20.90;18.20;;;;;;5052298;28;20397;-75
2023/09/22 11:51:45;;;;;;;2.47;1.40;;;20.90;17.20;;;;;;5052713;28;20386;-75
2023/09/22 11:54:15;;;;;;;4.05;1.38;;;21.10;17.80;;;;;;5050660;28;20401;-75
2023/09/22 11:56:42;;;;;;;2.58;1.50;;;21.10;18.10;;;;;;5055345;28;20385;-76
2023/09/22 11:59:09;;;;;;;2.60;1.20;;;21.10;18.20;;;;;;5065355;28;20377;-75
2023/09/22 12:01:35;;;;;;;2.60;1.20;;;21.10;17.50;;;;;;5060063;28;20386;-74
2023/09/22 12:04:04;;;;;;;3.00;1.30;;;21.10;17.80;;;;;;5052183;28;20400;-75
2023/09/22 12:06:30;;;;;;;2.55;1.20;;;21.20;17.20;;;;;;5052451;28;20420;-73
2023/09/22 12:08:57;;;;;;;5.10;1.70;;;21.10;16.90;;;;;;5051120;28;20849;-75
2023/09/22 12:11:23;;;;;;;4.78;1.50;;;21.10;17.20;;;;;;5052795;28;20405;-75
2023/09/22 12:13:49;;;;;;;2.33;1.30;;;21.40;17.60;;;;;;5051920;28;20405;-74
2023/09/22 12:16:14;;;;;;;5.07;1.50;;;21.60;16.20;;;;;;5052122;28;20464;-75
2023/09/22 12:18:40;;;;;;;2.72;1.50;;;21.40;16.00;;;;;;5052063;28;20436;-74
2023/09/22 12:21:06;;;;;;;5.23;1.40;;;21.10;16.70;;;;;;5051585;28;20389;-74
2023/09/22 12:23:35;;;;;;;3.95;1.50;;;21.00;17.40;;;;;;5050708;28;20436;-74
2023/09/22 12:26:03;;;;;;;3.92;1.30;;;20.80;17.40;;;;;;5052689;28;20393;-74
2023/09/22 12:28:29;;;;;;;4.00;1.42;;;20.40;17.40;;;;;;5050753;28;20396;-76
2023/09/22 12:30:55;;;;;;;3.35;1.50;;;20.30;18.60;;;;;;5052527;28;20738;-74
2023/09/22 12:33:21;;;;;;;4.47;2.17;;;20.10;18.70;;;;;;5052366;28;20397;-75
2023/09/22 12:35:54;;;;;;;3.97;1.65;;;20.00;19.10;;;;;;5052850;28;21024;-75
2023/09/22 12:38:21;;;;;;;3.30;1.80;;;20.10;19.00;;;;;;5051712;28;20419;-77
2023/09/22 12:40:46;;;;;;;4.60;1.60;;;20.50;19.40;;;;;;5052513;28;20381;-77
2023/09/22 12:43:12;;;;;;;3.65;1.40;;;20.90;17.90;;;;;;5051836;28;20901;-75
2023/09/22 12:45:39;;;;;;;2.70;1.40;;;21.20;18.00;;;;;;5053655;28;20388;-76
2023/09/22 12:48:04;;;;;;;5.55;1.50;;;21.10;17.60;;;;;;5051902;28;20396;-76